Miles, TX (76861)

7:32 PM CST on February 09, 2016 (GMT -0600)
May Hill | | Change Station
CLOSE
Current Station
Personal Weather Station
Location: Miles, TX
Elevation: 1762 ft
Nearby Weather Stations

Elev 1762 ft 31.55 °N, 100.22 °W | Updated 1 minute ago

Clear
Clear
55.9 °F
Feels Like 55.9 °F
N
2.2
Wind Variable Wind from NNW

Today
High -- | Low -- °F
--% Chance of Precip.
Yesterday
High -- | Low -- °F
Precip. -- in
Pressure 30.29 in
Visibility 10.0 miles
Clouds Clear
Dew Point 24 °F
Humidity 29%
Rainfall 0.00 in
Snow Depth Not available.
7:28 AM 6:22 PM
Waxing Crescent, 3% visible
METAR KSJT 100051Z 30004KT 10SM CLR 16/M04 A3028 RMK AO2 SLP257 T01611044
Pressure 30.29 in
Visibility 10.0 miles
Clouds Clear
Dew Point 24 °F
Humidity 29%
Rainfall 0.00 in
Snow Depth Not available.
7:28 AM 6:22 PM
Waxing Crescent, 3% visible
METAR KSJT 100051Z 30004KT 10SM CLR 16/M04 A3028 RMK AO2 SLP257 T01611044

10-Day Weather Forecast

Almanac

Astronomy

Feb. 09, 2016 Rise Set
Actual Time
Civil Twilight
Nautical Twilight
Astronomical Twilight
Moon
Length of Visible Light
Length of Day
Tomorrow will be .
, % of the Moon is Illuminated

Today's Extremes

State Highs State Lows

Community

WunderPhotos

Upload Photos

1,891,760 photos uploaded!

WunderBlog® & News

Nearby

Air Quality

  Air Quality AQ Index Pollutant
Not available.

Snow Depth

Station Depth Elevation

Earthquake Activity

City Distance Mag. Time & Date
Minimum magnitude displayed is 2.5.

Coastal Water Temperatures

Place Temperature

Stations

Nearby Weather Stations

Station Location Temp. Windchill Dew Point Humidity Wind Precip. Elev Updated Type
                   

Watches & Warnings

There are currently no watches in effect.